Des Moines International Airport

Airport
ICAO code: 
KDSM
Summary
ICAO Region: 
NAM
Territory: 
Location: 
Des Moines, Iowa,
Elevation: 
958 ft
Coordinates: 
Aerial View: 
41° 31' 48.914" N, 93° 38' 59.723" W
Airport CFIT: 
Altimeter Temperature Error Correction
Metar
Observation
KDSM 020954Z 33003KT 10SM CLR 11/00 A2981 RMK AO2 SLP095 T01060000
Station
Des Moines, Des Moines International Airport
Date/Time
2021-12-02 09:54:00
Wind direction
330°
Wind speed
03 kts
Lowest cloud amount
n/a
Temperature
10.6°C
Dew point
0°C
Humidity
47%
Weather condition
n/a

Description

Des Moines International Airport is a joint civil-military (ANG) public-use airport located 6 km southwest of the central business district of Des Moines, a city in Polk County, Iowa.

Climatology

Humid continental climate (Köppen climate classification Dfa) - characterized by four seasons: cold, windy, snowy winters, mild springs, hot, humid summers, and crisp and relatively short autumns. Precipitation reaches its lowest in January and February and peaks in summer and latter half of spring.

Runways

Designator Length Width Surface Rops
5/23 2744 46 ASP Yes/Yes
13/31 2744 46 ASP Yes/Yes
Airport map: 
Aerial View: 

SKYbrary Partners:

Safety knowledge contributed by: